»·PEaware :: N3891R KOXR-KLGB

N3891R :: KOXR-KLGB

FLIGHT INFORMATION

Flight Status: Arrived
Operator: Privately registered:
United States
More flights under this callsign
Pilot: Markus B. (22479)
Aircraft: BEECH AIRCRAFT BARON
(BE58)
More flights by this aircraft type
Origin: KOXR Oxnard
United States
Destination: KLGB Long Beach
United States
More flights between these airports :: More routes between these airports
Route: +GINNA V326 VNY V186 ADAMM V394 SLI
File this flight plan on PilotEdge
Remarks: TEC routeVTUP6
Altitude:
(Current/Filed)
6,000ft
Speed:
(Current/Filed)
170kts
Departed: 06-Feb-20 05:51 PM
Arrived: 06-Feb-20 06:33 PM
Distance/Time
Traveled:
57nm/0:42
Distance/Time
To Go:
Arrived

Flight Plot

Page will automatically refresh every two minutes.

Flight plan parsing failed; only flown route is shown


Map Options




Map Legend


Flown Route
Filed Route
Departure Airport
Arrival Airport
Navaid (VOR, NDB)
Fix

Horizontal Profiles

Position Reports

Time Latitude Longitude Heading Altitude Ground
Speed
06-Feb-20 17:34 34.200879 -119.216828 90 30ft 0kts
06-Feb-20 17:35 34.199332 -119.215003 92 34ft 4kts
06-Feb-20 17:36 34.199627 -119.206563 100 37ft 25kts
06-Feb-20 17:37 34.199093 -119.199365 94 43ft 0kts
06-Feb-20 17:38 34.199093 -119.199365 94 43ft 0kts
06-Feb-20 17:39 34.199093 -119.199365 94 43ft 0kts
06-Feb-20 17:40 34.199093 -119.199365 94 43ft 0kts
06-Feb-20 17:41 34.199093 -119.199365 94 43ft 0kts
06-Feb-20 17:42 34.199093 -119.199365 94 43ft 0kts
06-Feb-20 17:43 34.199093 -119.199365 94 43ft 0kts
06-Feb-20 17:44 34.199093 -119.199365 94 43ft 0kts
06-Feb-20 17:45 34.199093 -119.199365 94 43ft 0kts
06-Feb-20 17:46 34.199093 -119.199365 94 43ft 0kts
06-Feb-20 17:47 34.199093 -119.199365 94 43ft 0kts
06-Feb-20 17:48 34.199093 -119.199365 94 43ft 0kts
06-Feb-20 17:49 34.199920 -119.197551 12 43ft 0kts
06-Feb-20 17:50 34.200785 -119.204514 269 40ft 103kts
06-Feb-20 17:51 34.200039 -119.245683 266 1433ft 125kts
06-Feb-20 17:52 34.198090 -119.286933 266 2959ft 122kts
06-Feb-20 17:53 34.190258 -119.324957 205 4322ft 122kts
06-Feb-20 17:54 34.171097 -119.296758 102 5082ft 154kts
06-Feb-20 17:55 34.166816 -119.241355 58 5008ft 181kts
06-Feb-20 17:56 34.174687 -119.182554 83 5084ft 181kts
06-Feb-20 17:57 34.183129 -119.122143 80 5040ft 182kts
06-Feb-20 17:58 34.191606 -119.060805 80 5056ft 187kts
06-Feb-20 17:59 34.200193 -118.998522 80 5050ft 188kts
06-Feb-20 18:00 34.208803 -118.935893 80 5048ft 188kts
06-Feb-20 18:01 34.217375 -118.873336 80 5047ft 188kts
06-Feb-20 18:02 34.223263 -118.810324 92 5047ft 188kts
06-Feb-20 18:03 34.223064 -118.746958 89 5048ft 188kts
06-Feb-20 18:04 34.223316 -118.683269 89 4977ft 192kts
06-Feb-20 18:05 34.223417 -118.618747 89 4917ft 189kts
06-Feb-20 18:06 34.223471 -118.555237 89 4920ft 188kts
06-Feb-20 18:07 34.222546 -118.491890 103 4877ft 191kts
06-Feb-20 18:08 34.205498 -118.431759 109 4896ft 190kts
06-Feb-20 18:09 34.187420 -118.372015 109 4904ft 189kts
06-Feb-20 18:10 34.169772 -118.313261 109 4902ft 188kts
06-Feb-20 18:11 34.151867 -118.254093 108 4901ft 188kts
06-Feb-20 18:12 34.133286 -118.194925 110 4911ft 188kts
06-Feb-20 18:13 34.115056 -118.135342 110 4900ft 189kts
06-Feb-20 18:14 34.096824 -118.075831 110 4898ft 189kts
06-Feb-20 18:15 34.078610 -118.016499 110 4901ft 188kts
06-Feb-20 18:16 34.060360 -117.957165 110 4916ft 189kts
06-Feb-20 18:17 34.042071 -117.897823 110 4916ft 189kts
06-Feb-20 18:18 34.023413 -117.838569 120 4897ft 190kts
06-Feb-20 18:19 33.974938 -117.837322 201 4847ft 189kts
06-Feb-20 18:20 33.927312 -117.860256 201 3928ft 177kts
06-Feb-20 18:21 33.884652 -117.880871 201 3868ft 156kts
06-Feb-20 18:22 33.844450 -117.900565 203 3916ft 158kts
06-Feb-20 18:23 33.805160 -117.921010 203 3904ft 149kts
06-Feb-20 18:24 33.767221 -117.940749 203 3689ft 150kts
06-Feb-20 18:25 33.730708 -117.959741 203 2805ft 118kts
06-Feb-20 18:26 33.722289 -117.987834 280 2069ft 97kts
06-Feb-20 18:27 33.727647 -118.021439 280 1618ft 98kts
06-Feb-20 18:29 33.736963 -118.051394 304 1478ft 87kts
06-Feb-20 18:30 33.755156 -118.075562 310 1619ft 105kts
06-Feb-20 18:31 33.779885 -118.105794 321 886ft 136kts
06-Feb-20 18:32 33.804594 -118.135412 315 167ft 106kts
06-Feb-20 18:33 33.818280 -118.151964 311 41ft 30kts
06-Feb-20 18:34 33.818544 -118.154082 270 44ft 0kts
06-Feb-20 18:35 33.818544 -118.154125 270 44ft 0kts
06-Feb-20 18:36 33.815850 -118.157290 184 48ft 34kts
06-Feb-20 18:37 33.812891 -118.160985 233 51ft 8kts

Navigation Log

Ident Type
Flight plan parsing failed, navigation log unavailable